sensor_id;sensor_type;location;lat;lon;timestamp;temperature;humidity
54558;DHT22;40452;50.080;20.040;2023-05-10T02:40:18;21.40;38.60
54558;DHT22;40452;50.080;20.040;2023-05-10T02:42:45;21.40;38.60
54558;DHT22;40452;50.080;20.040;2023-05-10T02:45:17;21.40;38.70
54558;DHT22;40452;50.080;20.040;2023-05-10T02:47:43;21.40;38.50
54558;DHT22;40452;50.080;20.040;2023-05-10T02:50:09;21.40;38.50
54558;DHT22;40452;50.080;20.040;2023-05-10T02:52:47;21.40;38.50
54558;DHT22;40452;50.080;20.040;2023-05-10T02:55:15;21.40;38.60
54558;DHT22;40452;50.080;20.040;2023-05-10T02:57:47;21.40;38.50
54558;DHT22;40452;50.080;20.040;2023-05-10T03:00:14;21.50;38.80
54558;DHT22;40452;50.080;20.040;2023-05-10T03:02:40;21.40;38.40
54558;DHT22;40452;50.080;20.040;2023-05-10T03:05:06;21.40;38.30
54558;DHT22;40452;50.080;20.040;2023-05-10T03:07:32;21.40;38.80
54558;DHT22;40452;50.080;20.040;2023-05-10T03:09:58;21.40;38.70
54558;DHT22;40452;50.080;20.040;2023-05-10T03:15:22;21.40;40.40
54558;DHT22;40452;50.080;20.040;2023-05-10T03:17:52;21.40;40.30
54558;DHT22;40452;50.080;20.040;2023-05-10T03:20:43;21.90;40.70
54558;DHT22;40452;50.080;20.040;2023-05-10T03:23:22;21.40;40.70
54558;DHT22;40452;50.080;20.040;2023-05-10T03:25:52;21.40;40.80
54558;DHT22;40452;50.080;20.040;2023-05-10T03:28:18;21.40;40.90
54558;DHT22;40452;50.080;20.040;2023-05-10T03:30:44;21.40;40.30
54558;DHT22;40452;50.080;20.040;2023-05-10T03:33:10;21.50;40.50
54558;DHT22;40452;50.080;20.040;2023-05-10T03:35:40;21.50;40.60
54558;DHT22;40452;50.080;20.040;2023-05-10T03:38:06;21.50;39.80
54558;DHT22;40452;50.080;20.040;2023-05-10T03:40:31;21.50;39.80
54558;DHT22;40452;50.080;20.040;2023-05-10T03:43:00;21.50;40.20
54558;DHT22;40452;50.080;20.040;2023-05-10T03:45:26;21.40;40.30
54558;DHT22;40452;50.080;20.040;2023-05-10T03:47:52;21.40;40.20
54558;DHT22;40452;50.080;20.040;2023-05-10T03:50:17;21.40;40.00
54558;DHT22;40452;50.080;20.040;2023-05-10T03:52:45;21.40;39.90
54558;DHT22;40452;50.080;20.040;2023-05-10T03:55:11;21.40;40.10
54558;DHT22;40452;50.080;20.040;2023-05-10T03:57:37;21.40;40.50
54558;DHT22;40452;50.080;20.040;2023-05-10T04:00:03;21.40;40.40
54558;DHT22;40452;50.080;20.040;2023-05-10T04:02:29;21.40;40.60
54558;DHT22;40452;50.080;20.040;2023-05-10T04:04:55;21.40;40.70
54558;DHT22;40452;50.080;20.040;2023-05-10T04:07:21;21.30;40.80
54558;DHT22;40452;50.080;20.040;2023-05-10T04:09:47;21.30;40.70
54558;DHT22;40452;50.080;20.040;2023-05-10T04:12:12;21.30;40.70
54558;DHT22;40452;50.080;20.040;2023-05-10T04:14:38;21.30;40.70
54558;DHT22;40452;50.080;20.040;2023-05-10T04:17:03;21.30;40.70
54558;DHT22;40452;50.080;20.040;2023-05-10T04:19:32;21.30;40.70
54558;DHT22;40452;50.080;20.040;2023-05-10T04:21:58;21.30;40.70
54558;DHT22;40452;50.080;20.040;2023-05-10T04:24:23;21.30;40.80
54558;DHT22;40452;50.080;20.040;2023-05-10T04:26:49;21.30;40.90
54558;DHT22;40452;50.080;20.040;2023-05-10T04:29:15;21.30;40.90
54558;DHT22;40452;50.080;20.040;2023-05-10T04:31:40;21.20;40.90
54558;DHT22;40452;50.080;20.040;2023-05-10T04:34:06;21.20;41.00
54558;DHT22;40452;50.080;20.040;2023-05-10T04:36:31;21.20;41.00
54558;DHT22;40452;50.080;20.040;2023-05-10T04:38:59;21.20;41.10
54558;DHT22;40452;50.080;20.040;2023-05-10T04:41:24;21.20;41.10
54558;DHT22;40452;50.080;20.040;2023-05-10T04:43:50;21.20;41.20
54558;DHT22;40452;50.080;20.040;2023-05-10T04:46:16;21.20;41.20
54558;DHT22;40452;50.080;20.040;2023-05-10T04:48:41;21.20;41.20
54558;DHT22;40452;50.080;20.040;2023-05-10T04:51:07;21.20;41.30
54558;DHT22;40452;50.080;20.040;2023-05-10T04:53:33;21.20;41.20
54558;DHT22;40452;50.080;20.040;2023-05-10T04:55:58;21.20;41.30
54558;DHT22;40452;50.080;20.040;2023-05-10T04:58:23;21.30;41.30
54558;DHT22;40452;50.080;20.040;2023-05-10T05:00:49;21.30;41.30
54558;DHT22;40452;50.080;20.040;2023-05-10T05:03:15;21.30;41.40
54558;DHT22;40452;50.080;20.040;2023-05-10T05:05:40;21.30;41.20
54558;DHT22;40452;50.080;20.040;2023-05-10T05:08:06;21.40;40.80
54558;DHT22;40452;50.080;20.040;2023-05-10T05:10:31;21.10;36.30
54558;DHT22;40452;50.080;20.040;2023-05-10T05:12:57;19.60;36.30
54558;DHT22;40452;50.080;20.040;2023-05-10T05:15:22;19.00;37.20
54558;DHT22;40452;50.080;20.040;2023-05-10T05:17:48;18.50;37.60
54558;DHT22;40452;50.080;20.040;2023-05-10T05:20:14;18.00;38.20
54558;DHT22;40452;50.080;20.040;2023-05-10T05:22:39;17.70;38.90
54558;DHT22;40452;50.080;20.040;2023-05-10T05:25:05;17.60;39.40
54558;DHT22;40452;50.080;20.040;2023-05-10T05:27:31;17.40;39.50
54558;DHT22;40452;50.080;20.040;2023-05-10T05:29:57;17.20;39.90
54558;DHT22;40452;50.080;20.040;2023-05-10T05:32:23;17.10;40.40
54558;DHT22;40452;50.080;20.040;2023-05-10T05:34:50;16.90;40.80
54558;DHT22;40452;50.080;20.040;2023-05-10T05:37:17;16.80;41.10
54558;DHT22;40452;50.080;20.040;2023-05-10T05:39:43;16.70;41.50
54558;DHT22;40452;50.080;20.040;2023-05-10T05:42:10;16.60;41.80
54558;DHT22;40452;50.080;20.040;2023-05-10T05:44:35;16.70;41.90
54558;DHT22;40452;50.080;20.040;2023-05-10T12:30:29;20.80;36.70
54558;DHT22;40452;50.080;20.040;2023-05-10T12:33:01;20.70;36.70
54558;DHT22;40452;50.080;20.040;2023-05-10T12:35:30;20.80;37.70
54558;DHT22;40452;50.080;20.040;2023-05-10T12:37:55;20.70;37.30
54558;DHT22;40452;50.080;20.040;2023-05-10T12:40:21;20.70;37.60
54558;DHT22;40452;50.080;20.040;2023-05-10T12:42:47;20.70;37.20
54558;DHT22;40452;50.080;20.040;2023-05-10T12:45:13;20.70;37.60
54558;DHT22;40452;50.080;20.040;2023-05-10T12:47:39;20.70;37.60
54558;DHT22;40452;50.080;20.040;2023-05-10T12:50:05;20.70;37.80
54558;DHT22;40452;50.080;20.040;2023-05-10T12:52:31;20.70;37.70
54558;DHT22;40452;50.080;20.040;2023-05-10T12:54:58;20.80;37.40
54558;DHT22;40452;50.080;20.040;2023-05-10T12:57:24;20.80;38.00
54558;DHT22;40452;50.080;20.040;2023-05-10T12:59:49;20.80;37.50
54558;DHT22;40452;50.080;20.040;2023-05-10T13:02:15;20.80;36.60
54558;DHT22;40452;50.080;20.040;2023-05-10T13:04:43;20.90;36.40
54558;DHT22;40452;50.080;20.040;2023-05-10T13:07:09;20.90;36.50
54558;DHT22;40452;50.080;20.040;2023-05-10T13:09:37;20.90;37.00
54558;DHT22;40452;50.080;20.040;2023-05-10T13:12:03;20.80;37.40
54558;DHT22;40452;50.080;20.040;2023-05-10T13:14:29;20.80;37.80
54558;DHT22;40452;50.080;20.040;2023-05-10T13:16:54;20.70;37.70
54558;DHT22;40452;50.080;20.040;2023-05-10T13:19:20;20.70;37.90
54558;DHT22;40452;50.080;20.040;2023-05-10T13:21:46;20.70;37.80
54558;DHT22;40452;50.080;20.040;2023-05-10T13:24:12;20.70;38.00
54558;DHT22;40452;50.080;20.040;2023-05-10T13:26:42;20.70;38.00
54558;DHT22;40452;50.080;20.040;2023-05-10T13:29:08;20.70;38.10
54558;DHT22;40452;50.080;20.040;2023-05-10T13:31:34;20.70;38.20
54558;DHT22;40452;50.080;20.040;2023-05-10T13:34:00;20.70;38.30
54558;DHT22;40452;50.080;20.040;2023-05-10T13:36:25;20.70;38.30
54558;DHT22;40452;50.080;20.040;2023-05-10T13:38:51;20.70;38.40
54558;DHT22;40452;50.080;20.040;2023-05-10T13:41:17;20.70;38.50
54558;DHT22;40452;50.080;20.040;2023-05-10T13:43:43;20.80;38.60
54558;DHT22;40452;50.080;20.040;2023-05-10T13:46:08;20.70;38.70
54558;DHT22;40452;50.080;20.040;2023-05-10T13:48:34;20.70;38.80
54558;DHT22;40452;50.080;20.040;2023-05-10T13:50:59;20.80;39.60
54558;DHT22;40452;50.080;20.040;2023-05-10T13:53:25;20.70;38.90
54558;DHT22;40452;50.080;20.040;2023-05-10T13:55:50;20.70;39.00
54558;DHT22;40452;50.080;20.040;2023-05-10T13:58:16;20.70;39.00
54558;DHT22;40452;50.080;20.040;2023-05-10T14:00:41;20.80;39.10
54558;DHT22;40452;50.080;20.040;2023-05-10T14:03:07;20.80;39.10
54558;DHT22;40452;50.080;20.040;2023-05-10T14:05:34;20.80;39.20
54558;DHT22;40452;50.080;20.040;2023-05-10T14:08:00;20.80;39.90
54558;DHT22;40452;50.080;20.040;2023-05-10T14:10:25;20.80;39.30
54558;DHT22;40452;50.080;20.040;2023-05-10T14:12:51;20.80;39.30
54558;DHT22;40452;50.080;20.040;2023-05-10T14:15:16;20.80;39.30
54558;DHT22;40452;50.080;20.040;2023-05-10T14:17:42;20.80;39.30
54558;DHT22;40452;50.080;20.040;2023-05-10T14:20:08;20.80;39.30
54558;DHT22;40452;50.080;20.040;2023-05-10T14:22:34;20.80;39.40
54558;DHT22;40452;50.080;20.040;2023-05-10T14:25:00;20.80;39.40
54558;DHT22;40452;50.080;20.040;2023-05-10T14:27:25;20.80;39.40
54558;DHT22;40452;50.080;20.040;2023-05-10T14:29:51;20.80;39.50
54558;DHT22;40452;50.080;20.040;2023-05-10T14:32:18;20.90;39.60
54558;DHT22;40452;50.080;20.040;2023-05-10T14:34:44;20.80;39.50
54558;DHT22;40452;50.080;20.040;2023-05-10T14:37:13;20.90;39.50
54558;DHT22;40452;50.080;20.040;2023-05-10T14:39:39;20.90;39.60
54558;DHT22;40452;50.080;20.040;2023-05-10T14:42:04;20.90;39.60
54558;DHT22;40452;50.080;20.040;2023-05-10T14:44:30;20.90;39.60
54558;DHT22;40452;50.080;20.040;2023-05-10T14:46:56;20.90;39.70
54558;DHT22;40452;50.080;20.040;2023-05-10T14:49:22;20.90;39.60
54558;DHT22;40452;50.080;20.040;2023-05-10T14:51:50;20.90;39.60
54558;DHT22;40452;50.080;20.040;2023-05-10T14:54:16;20.90;39.60
54558;DHT22;40452;50.080;20.040;2023-05-10T14:56:42;20.90;39.60
54558;DHT22;40452;50.080;20.040;2023-05-10T14:59:08;20.90;39.60
54558;DHT22;40452;50.080;20.040;2023-05-10T15:01:34;20.90;39.60
54558;DHT22;40452;50.080;20.040;2023-05-10T15:04:05;20.90;39.60
54558;DHT22;40452;50.080;20.040;2023-05-10T15:06:32;20.90;39.60
54558;DHT22;40452;50.080;20.040;2023-05-10T15:08:57;21.00;39.70
54558;DHT22;40452;50.080;20.040;2023-05-10T15:11:23;21.00;39.70
54558;DHT22;40452;50.080;20.040;2023-05-10T15:13:49;21.00;39.70
54558;DHT22;40452;50.080;20.040;2023-05-10T15:16:14;21.00;39.50
54558;DHT22;40452;50.080;20.040;2023-05-10T15:18:40;21.00;39.70
54558;DHT22;40452;50.080;20.040;2023-05-10T15:21:06;21.00;39.90
54558;DHT22;40452;50.080;20.040;2023-05-10T15:23:31;21.00;40.10
54558;DHT22;40452;50.080;20.040;2023-05-10T15:25:57;21.00;40.20
54558;DHT22;40452;50.080;20.040;2023-05-10T15:28:23;21.00;40.20
54558;DHT22;40452;50.080;20.040;2023-05-10T15:30:48;21.00;40.20
54558;DHT22;40452;50.080;20.040;2023-05-10T15:33:14;21.00;40.20
54558;DHT22;40452;50.080;20.040;2023-05-10T15:35:40;21.00;40.20
54558;DHT22;40452;50.080;20.040;2023-05-10T15:38:06;21.00;40.20
54558;DHT22;40452;50.080;20.040;2023-05-10T15:40:32;21.00;40.40
54558;DHT22;40452;50.080;20.040;2023-05-10T15:42:58;21.00;40.50
54558;DHT22;40452;50.080;20.040;2023-05-10T15:45:23;21.00;40.60
54558;DHT22;40452;50.080;20.040;2023-05-10T15:47:49;20.80;40.60
54558;DHT22;40452;50.080;20.040;2023-05-10T15:50:15;21.00;40.60
54558;DHT22;40452;50.080;20.040;2023-05-10T15:52:41;21.00;40.50
54558;DHT22;40452;50.080;20.040;2023-05-10T15:55:07;21.00;40.60
54558;DHT22;40452;50.080;20.040;2023-05-10T15:57:38;21.00;40.50
54558;DHT22;40452;50.080;20.040;2023-05-10T16:00:04;21.00;40.50
54558;DHT22;40452;50.080;20.040;2023-05-10T16:02:30;21.00;40.20
54558;DHT22;40452;50.080;20.040;2023-05-10T16:05:03;21.00;40.50
54558;DHT22;40452;50.080;20.040;2023-05-10T16:07:29;21.00;40.10
54558;DHT22;40452;50.080;20.040;2023-05-10T16:09:55;21.00;39.90
54558;DHT22;40452;50.080;20.040;2023-05-10T16:12:20;21.10;40.00
54558;DHT22;40452;50.080;20.040;2023-05-10T16:14:46;21.00;39.60
54558;DHT22;40452;50.080;20.040;2023-05-10T16:17:12;21.00;39.70
54558;DHT22;40452;50.080;20.040;2023-05-10T16:19:39;21.00;40.10
54558;DHT22;40452;50.080;20.040;2023-05-10T16:22:05;21.00;40.20
54558;DHT22;40452;50.080;20.040;2023-05-10T16:24:31;21.00;40.20
54558;DHT22;40452;50.080;20.040;2023-05-10T16:26:56;21.00;40.30
54558;DHT22;40452;50.080;20.040;2023-05-10T16:29:22;21.00;40.30
54558;DHT22;40452;50.080;20.040;2023-05-10T16:31:47;21.00;40.50
54558;DHT22;40452;50.080;20.040;2023-05-10T16:34:13;21.00;40.50
54558;DHT22;40452;50.080;20.040;2023-05-10T16:36:38;21.00;40.60
54558;DHT22;40452;50.080;20.040;2023-05-10T16:39:04;21.00;40.50
54558;DHT22;40452;50.080;20.040;2023-05-10T16:41:33;21.00;40.60
54558;DHT22;40452;50.080;20.040;2023-05-10T16:43:58;20.90;40.50
54558;DHT22;40452;50.080;20.040;2023-05-10T16:46:25;21.00;40.60
54558;DHT22;40452;50.080;20.040;2023-05-10T16:48:50;21.00;41.20
54558;DHT22;40452;50.080;20.040;2023-05-10T16:51:16;21.00;40.60
54558;DHT22;40452;50.080;20.040;2023-05-10T16:53:41;21.00;40.50
54558;DHT22;40452;50.080;20.040;2023-05-10T16:56:07;21.00;40.50
54558;DHT22;40452;50.080;20.040;2023-05-10T16:58:32;21.00;40.50
54558;DHT22;40452;50.080;20.040;2023-05-10T17:00:58;21.10;40.60
54558;DHT22;40452;50.080;20.040;2023-05-10T17:03:24;21.00;40.60
54558;DHT22;40452;50.080;20.040;2023-05-10T17:05:50;20.90;40.70
54558;DHT22;40452;50.080;20.040;2023-05-10T17:08:15;21.00;40.80
54558;DHT22;40452;50.080;20.040;2023-05-10T17:10:41;21.00;40.90
54558;DHT22;40452;50.080;20.040;2023-05-10T17:13:07;21.00;40.90
54558;DHT22;40452;50.080;20.040;2023-05-10T17:15:35;21.00;40.90
54558;DHT22;40452;50.080;20.040;2023-05-10T17:18:01;21.00;40.80
54558;DHT22;40452;50.080;20.040;2023-05-10T17:20:27;21.00;40.70
54558;DHT22;40452;50.080;20.040;2023-05-10T17:22:52;21.10;40.70
54558;DHT22;40452;50.080;20.040;2023-05-10T17:25:18;21.10;40.70
54558;DHT22;40452;50.080;20.040;2023-05-10T17:27:47;21.10;40.60
54558;DHT22;40452;50.080;20.040;2023-05-10T17:30:12;21.10;40.70
54558;DHT22;40452;50.080;20.040;2023-05-10T17:32:38;21.10;40.60
54558;DHT22;40452;50.080;20.040;2023-05-10T17:35:04;21.10;40.50
54558;DHT22;40452;50.080;20.040;2023-05-10T17:37:30;21.10;40.60
54558;DHT22;40452;50.080;20.040;2023-05-10T17:40:00;21.10;40.60
54558;DHT22;40452;50.080;20.040;2023-05-10T17:42:27;21.10;40.60
54558;DHT22;40452;50.080;20.040;2023-05-10T17:44:53;21.10;40.60
54558;DHT22;40452;50.080;20.040;2023-05-10T17:47:18;21.10;40.70
54558;DHT22;40452;50.080;20.040;2023-05-10T17:49:44;21.10;40.80
54558;DHT22;40452;50.080;20.040;2023-05-10T17:52:10;21.10;40.90
54558;DHT22;40452;50.080;20.040;2023-05-10T17:54:36;21.10;41.00
54558;DHT22;40452;50.080;20.040;2023-05-10T17:57:04;21.10;41.20
54558;DHT22;40452;50.080;20.040;2023-05-10T17:59:29;21.10;41.40
54558;DHT22;40452;50.080;20.040;2023-05-10T18:01:55;21.30;41.70
54558;DHT22;40452;50.080;20.040;2023-05-10T18:04:20;21.10;41.80
54558;DHT22;40452;50.080;20.040;2023-05-10T18:06:46;21.10;41.90
54558;DHT22;40452;50.080;20.040;2023-05-10T18:09:12;21.10;42.20
54558;DHT22;40452;50.080;20.040;2023-05-10T18:11:37;21.20;42.20
54558;DHT22;40452;50.080;20.040;2023-05-10T18:14:04;21.20;42.10
54558;DHT22;40452;50.080;20.040;2023-05-10T18:16:29;21.20;42.10
54558;DHT22;40452;50.080;20.040;2023-05-10T18:18:55;21.20;42.20
54558;DHT22;40452;50.080;20.040;2023-05-10T18:21:21;21.10;42.00
54558;DHT22;40452;50.080;20.040;2023-05-10T18:23:47;21.20;42.10
54558;DHT22;40452;50.080;20.040;2023-05-10T18:26:12;21.20;42.10
54558;DHT22;40452;50.080;20.040;2023-05-10T18:28:38;21.10;42.20
54558;DHT22;40452;50.080;20.040;2023-05-10T18:31:03;21.20;42.20
54558;DHT22;40452;50.080;20.040;2023-05-10T18:33:29;21.20;42.20
54558;DHT22;40452;50.080;20.040;2023-05-10T18:35:54;21.00;42.30
54558;DHT22;40452;50.080;20.040;2023-05-10T18:38:20;21.20;42.50
54558;DHT22;40452;50.080;20.040;2023-05-10T18:40:46;21.20;42.30
54558;DHT22;40452;50.080;20.040;2023-05-10T18:43:11;21.20;42.30
54558;DHT22;40452;50.080;20.040;2023-05-10T18:45:37;21.10;42.40
54558;DHT22;40452;50.080;20.040;2023-05-10T18:48:04;21.10;42.50
54558;DHT22;40452;50.080;20.040;2023-05-10T18:50:29;21.10;42.50
54558;DHT22;40452;50.080;20.040;2023-05-10T18:52:55;21.10;42.60
54558;DHT22;40452;50.080;20.040;2023-05-10T18:55:22;21.10;42.60
54558;DHT22;40452;50.080;20.040;2023-05-10T18:57:49;21.20;42.70
54558;DHT22;40452;50.080;20.040;2023-05-10T19:00:15;21.10;42.60
54558;DHT22;40452;50.080;20.040;2023-05-10T19:02:42;21.10;42.30
54558;DHT22;40452;50.080;20.040;2023-05-10T19:05:08;21.20;42.00
54558;DHT22;40452;50.080;20.040;2023-05-10T19:07:34;21.20;41.30
54558;DHT22;40452;50.080;20.040;2023-05-10T19:10:00;21.20;41.30
54558;DHT22;40452;50.080;20.040;2023-05-10T19:12:25;21.20;40.90
54558;DHT22;40452;50.080;20.040;2023-05-10T19:14:51;21.20;41.10
54558;DHT22;40452;50.080;20.040;2023-05-10T19:17:16;21.20;41.90
54558;DHT22;40452;50.080;20.040;2023-05-10T19:19:42;21.10;42.10
54558;DHT22;40452;50.080;20.040;2023-05-10T19:22:07;21.10;40.60
54558;DHT22;40452;50.080;20.040;2023-05-10T19:24:33;21.10;40.10
54558;DHT22;40452;50.080;20.040;2023-05-10T19:27:00;21.10;39.60
54558;DHT22;40452;50.080;20.040;2023-05-10T19:29:25;21.10;39.70
54558;DHT22;40452;50.080;20.040;2023-05-10T19:31:51;21.10;39.50
54558;DHT22;40452;50.080;20.040;2023-05-10T19:34:17;21.10;38.70
54558;DHT22;40452;50.080;20.040;2023-05-10T19:36:43;21.10;38.40
54558;DHT22;40452;50.080;20.040;2023-05-10T19:39:09;21.00;39.00
54558;DHT22;40452;50.080;20.040;2023-05-10T19:41:35;21.00;38.50
54558;DHT22;40452;50.080;20.040;2023-05-10T19:44:00;21.00;39.10
54558;DHT22;40452;50.080;20.040;2023-05-10T19:46:26;21.00;38.60
54558;DHT22;40452;50.080;20.040;2023-05-10T19:48:51;21.00;38.20
54558;DHT22;40452;50.080;20.040;2023-05-10T19:51:17;21.00;38.10
54558;DHT22;40452;50.080;20.040;2023-05-10T19:53:42;21.00;37.30
54558;DHT22;40452;50.080;20.040;2023-05-10T19:56:11;21.00;37.50
54558;DHT22;40452;50.080;20.040;2023-05-10T19:58:37;21.00;37.30
54558;DHT22;40452;50.080;20.040;2023-05-10T20:01:02;20.90;36.70
54558;DHT22;40452;50.080;20.040;2023-05-10T20:03:30;20.90;37.50
54558;DHT22;40452;50.080;20.040;2023-05-10T20:05:55;20.90;36.90
54558;DHT22;40452;50.080;20.040;2023-05-10T20:08:21;20.90;36.90
54558;DHT22;40452;50.080;20.040;2023-05-10T20:10:46;20.90;36.40
54558;DHT22;40452;50.080;20.040;2023-05-10T20:13:12;20.90;36.30
54558;DHT22;40452;50.080;20.040;2023-05-10T20:15:37;20.90;36.20
54558;DHT22;40452;50.080;20.040;2023-05-10T20:18:03;20.90;36.60
54558;DHT22;40452;50.080;20.040;2023-05-10T20:20:28;20.90;37.00
54558;DHT22;40452;50.080;20.040;2023-05-10T20:22:54;20.90;36.30
54558;DHT22;40452;50.080;20.040;2023-05-10T20:25:19;20.90;36.00
54558;DHT22;40452;50.080;20.040;2023-05-10T20:27:45;20.80;36.50
54558;DHT22;40452;50.080;20.040;2023-05-10T20:30:11;20.80;35.90
54558;DHT22;40452;50.080;20.040;2023-05-10T20:32:37;20.80;35.90
54558;DHT22;40452;50.080;20.040;2023-05-10T20:35:03;20.80;36.30
54558;DHT22;40452;50.080;20.040;2023-05-10T20:37:29;20.80;35.70
54558;DHT22;40452;50.080;20.040;2023-05-10T20:39:55;20.80;36.10
54558;DHT22;40452;50.080;20.040;2023-05-10T20:42:21;20.80;35.80
54558;DHT22;40452;50.080;20.040;2023-05-10T20:44:46;20.80;36.10
54558;DHT22;40452;50.080;20.040;2023-05-10T20:47:15;20.80;35.70
54558;DHT22;40452;50.080;20.040;2023-05-10T20:49:41;20.80;35.40
54558;DHT22;40452;50.080;20.040;2023-05-10T20:52:07;20.80;35.50
54558;DHT22;40452;50.080;20.040;2023-05-10T20:54:33;20.70;35.40
54558;DHT22;40452;50.080;20.040;2023-05-10T20:56:59;20.70;35.80
54558;DHT22;40452;50.080;20.040;2023-05-10T20:59:26;20.70;35.70
54558;DHT22;40452;50.080;20.040;2023-05-10T21:01:51;20.70;36.50
54558;DHT22;40452;50.080;20.040;2023-05-10T21:04:17;20.70;35.70
54558;DHT22;40452;50.080;20.040;2023-05-10T21:06:43;20.70;35.70
54558;DHT22;40452;50.080;20.040;2023-05-10T21:09:09;20.70;35.90
54558;DHT22;40452;50.080;20.040;2023-05-10T21:11:35;20.70;35.50
54558;DHT22;40452;50.080;20.040;2023-05-10T21:14:02;20.70;35.70
54558;DHT22;40452;50.080;20.040;2023-05-10T21:16:28;20.70;36.50
54558;DHT22;40452;50.080;20.040;2023-05-10T21:18:53;20.70;36.10
54558;DHT22;40452;50.080;20.040;2023-05-10T21:21:19;20.70;36.20
